Time;durP1;ratioP1;P1;durP2;ratioP2;P2;SDS_P1;SDS_P2;PMS_P1;PMS_P2;Temp;Humidity;BMP_temperature;BMP_pressure;BME280_temperature;BME280_humidity;BME280_pressure;Samples;Min_cycle;Max_cycle;Signal;HPM_P1;HPM_P2
2022/03/21 00:01:07;;;;;;;;;62.50;52.25;;;;;8.91;57.39;101871.25;5032520;28;45604;-78
2022/03/21 00:03:33;;;;;;;;;61.25;47.50;;;;;8.90;57.52;101870.38;5033646;28;45331;-78
2022/03/21 00:05:59;;;;;;;;;60.25;47.50;;;;;8.92;57.14;101867.75;5033179;28;45399;-79
2022/03/21 00:08:25;;;;;;;;;65.00;52.50;;;;;8.83;57.98;101864.16;5033599;28;45400;-78
2022/03/21 00:10:54;;;;;;;;;67.50;51.75;;;;;8.83;58.33;101871.19;5032324;28;45548;-77
2022/03/21 00:13:21;;;;;;;;;68.25;54.25;;;;;8.82;57.33;101874.69;5031538;28;46501;-78
2022/03/21 00:15:48;;;;;;;;;67.25;49.50;;;;;8.79;58.23;101879.94;5033234;28;45430;-78
2022/03/21 00:18:14;;;;;;;;;67.25;53.50;;;;;8.78;58.48;101878.19;5033228;28;45612;-78
2022/03/21 00:20:41;;;;;;;;;63.50;49.25;;;;;8.77;58.25;101874.66;5033034;28;45518;-78
2022/03/21 00:23:07;;;;;;;;;70.25;52.00;;;;;8.74;59.05;101873.75;5033870;28;46272;-78
2022/03/21 00:25:32;;;;;;;;;68.00;52.75;;;;;8.73;57.95;101875.53;5042353;28;45389;-78
2022/03/21 00:27:58;;;;;;;;;48.50;39.75;;;;;8.69;58.29;101871.09;5038002;28;45322;-78
2022/03/21 00:30:24;;;;;;;;;68.25;56.50;;;;;8.73;58.12;101878.16;5035932;28;45350;-77
2022/03/21 00:32:49;;;;;;;;;64.50;51.25;;;;;8.74;58.16;101868.50;5035036;28;45319;-78
2022/03/21 00:35:15;;;;;;;;;69.50;54.00;;;;;8.71;58.25;101875.53;5036322;28;45434;-78
2022/03/21 00:37:42;;;;;;;;;64.75;50.00;;;;;8.71;58.79;101872.88;5036597;28;45407;-77
2022/03/21 00:40:08;;;;;;;;;70.50;52.50;;;;;8.67;58.94;101868.44;5036148;28;45551;-80
2022/03/21 00:42:35;;;;;;;;;68.25;52.75;;;;;8.68;58.73;101877.22;5034745;28;45711;-75
2022/03/21 00:45:06;;;;;;;;;56.00;45.00;;;;;8.65;59.17;101872.81;5035857;28;45539;-74
2022/03/21 00:47:33;;;;;;;;;50.50;41.00;;;;;8.64;58.74;101875.41;5056075;28;45382;-74
2022/03/21 00:49:59;;;;;;;;;68.75;54.00;;;;;8.63;59.17;101876.31;5037429;28;45525;-75
2022/03/21 00:52:24;;;;;;;;;69.50;53.50;;;;;8.59;59.64;101883.28;5035842;28;45567;-75
2022/03/21 00:54:50;;;;;;;;;64.50;49.75;;;;;8.59;58.92;101879.78;5037827;28;45499;-75
2022/03/21 00:57:16;;;;;;;;;57.50;49.25;;;;;8.57;58.93;101877.13;5036418;28;45396;-75
2022/03/21 00:59:41;;;;;;;;;65.00;47.50;;;;;8.53;58.89;101872.69;5034558;28;45387;-76
2022/03/21 01:02:08;;;;;;;;;67.75;51.75;;;;;8.52;59.32;101870.94;5036321;28;45447;-76
2022/03/21 01:04:34;;;;;;;;;66.75;50.50;;;;;8.51;59.13;101866.53;5035611;28;45472;-75
2022/03/21 01:07:00;;;;;;;;;66.00;52.75;;;;;8.47;59.18;101863.00;5034918;28;45311;-75
2022/03/21 01:09:25;;;;;;;;;50.00;44.00;;;;;8.45;59.15;101861.22;5035655;28;45366;-76
2022/03/21 01:11:50;;;;;;;;;68.75;52.50;;;;;8.44;59.39;101860.34;5034867;28;46353;-75
2022/03/21 01:14:16;;;;;;;;;70.00;55.50;;;;;8.47;59.37;101875.28;5034984;28;45369;-76
2022/03/21 01:16:41;;;;;;;;;67.00;52.00;;;;;8.46;59.32;101870.91;5034284;28;45397;-76
2022/03/21 01:19:07;;;;;;;;;57.50;47.75;;;;;8.47;59.40;101875.28;5035589;28;45367;-75
2022/03/21 01:21:33;;;;;;;;;62.75;50.00;;;;;8.48;59.84;101869.16;5036173;28;46129;-74
2022/03/21 01:23:58;;;;;;;;;56.50;48.00;;;;;8.45;59.32;101869.13;5051868;28;45525;-75
2022/03/21 01:26:24;;;;;;;;;61.00;49.25;;;;;8.48;59.76;101870.03;5035444;28;45647;-75
2022/03/21 01:28:49;;;;;;;;;64.25;47.75;;;;;8.49;60.28;101878.84;5034889;28;45564;-75
2022/03/21 01:31:15;;;;;;;;;56.50;47.25;;;;;8.50;59.44;101876.22;5035346;28;45402;-75
2022/03/21 01:33:41;;;;;;;;;67.50;50.50;;;;;8.49;59.94;101869.16;5035540;28;45437;-75
2022/03/21 01:36:07;;;;;;;;;57.00;47.75;;;;;8.52;60.31;101868.31;5034106;28;45582;-75
2022/03/21 01:38:33;;;;;;;;;63.00;47.00;;;;;8.54;60.03;101880.63;5034949;28;45430;-75
2022/03/21 01:40:58;;;;;;;;;63.00;51.50;;;;;8.53;59.82;101864.78;5034176;28;45442;-74
2022/03/21 01:43:23;;;;;;;;;59.50;48.00;;;;;8.53;59.71;101872.69;5034323;28;45431;-74
2022/03/21 01:45:49;;;;;;;;;68.50;51.50;;;;;8.58;59.69;101872.72;5042346;28;45294;-75
2022/03/21 01:48:14;;;;;;;;;63.00;50.25;;;;;8.58;60.08;101872.72;5055323;28;45479;-75
2022/03/21 01:50:41;;;;;;;;;55.75;47.00;;;;;8.55;60.22;101863.06;5050649;28;46058;-74
2022/03/21 01:55:52;;;;;;;;;65.00;49.50;;;;;8.59;59.99;101867.47;5034720;28;45485;-75
2022/03/21 01:58:17;;;;;;;;;59.25;47.75;;;;;8.57;59.52;101871.00;5035160;28;45277;-75
2022/03/21 02:00:45;;;;;;;;;61.25;48.75;;;;;8.54;59.76;101872.72;5035113;28;46124;-74
2022/03/21 02:03:11;;;;;;;;;61.00;47.75;;;;;8.54;59.50;101877.09;5034159;28;45462;-76
2022/03/21 02:05:38;;;;;;;;;65.50;53.25;;;;;8.54;59.73;101871.84;5034154;28;45551;-75
2022/03/21 02:08:04;;;;;;;;;63.00;51.00;;;;;8.52;59.94;101873.59;5034316;28;45552;-75
2022/03/21 02:10:30;;;;;;;;;56.75;46.50;;;;;8.51;60.33;101874.44;5033511;28;46247;-75
2022/03/21 02:12:56;;;;;;;;;62.00;52.25;;;;;8.52;60.22;101873.59;5034374;28;45546;-76
2022/03/21 02:15:21;;;;;;;;;64.50;52.50;;;;;8.46;59.79;101865.63;5034227;28;45412;-74
2022/03/21 02:17:48;;;;;;;;;65.00;50.75;;;;;8.52;59.95;101873.59;5034062;28;45484;-75
2022/03/21 02:20:21;;;;;;;;;68.25;51.75;;;;;8.51;59.51;101866.53;5034511;28;45563;-75
2022/03/21 02:23:20;;;;;;;;;57.25;46.50;;;;;8.50;60.58;101870.94;5034990;28;45422;-75
2022/03/21 02:25:47;;;;;;;;;65.50;52.25;;;;;8.51;59.98;101863.91;5034165;28;45505;-75
2022/03/21 02:28:15;;;;;;;;;64.00;51.75;;;;;8.50;60.25;101865.66;5033348;28;45592;-75
2022/03/21 02:30:43;;;;;;;;;69.25;53.00;;;;;8.47;60.32;101864.72;5036087;28;45369;-76
2022/03/21 02:33:10;;;;;;;;;66.00;49.75;;;;;8.47;60.72;101862.09;5034479;28;45516;-75
2022/03/21 02:35:36;;;;;;;;;63.25;50.25;;;;;8.46;60.79;101858.59;5033813;28;45505;-75
2022/03/21 02:38:02;;;;;;;;;56.25;47.25;;;;;8.47;61.13;101854.19;5034113;28;45496;-74
2022/03/21 02:40:28;;;;;;;;;66.00;52.00;;;;;8.48;60.61;101866.50;5036431;28;45659;-75
2022/03/21 02:42:54;;;;;;;;;66.50;49.50;;;;;8.48;60.56;101856.84;5047124;28;45679;-75
2022/03/21 02:45:20;;;;;;;;;60.50;47.75;;;;;8.47;60.43;101860.38;5037499;28;45528;-75
2022/03/21 02:47:45;;;;;;;;;64.25;51.75;;;;;8.44;60.70;101851.53;5042795;28;45600;-74
2022/03/21 02:50:19;;;;;;;;;61.25;48.50;;;;;8.46;60.52;101845.41;5033619;28;45641;-75
2022/03/21 02:52:48;;;;;;;;;65.75;50.00;;;;;8.48;60.68;101853.34;5033335;28;45492;-75
2022/03/21 02:55:13;;;;;;;;;67.75;51.75;;;;;8.47;60.68;101855.09;5033982;28;45446;-75
2022/03/21 02:57:39;;;;;;;;;62.75;48.75;;;;;8.49;61.23;101852.47;5035263;28;45436;-75
2022/03/21 03:00:06;;;;;;;;;63.00;49.50;;;;;8.51;60.71;101850.72;5035357;28;48325;-74
2022/03/21 03:02:31;;;;;;;;;67.25;50.25;;;;;8.47;60.88;101844.56;5032202;28;45402;-75
2022/03/21 03:04:57;;;;;;;;;60.25;49.75;;;;;8.49;61.14;101847.22;5033140;28;45753;-76
2022/03/21 03:07:22;;;;;;;;;66.50;52.75;;;;;8.50;61.15;101847.22;5033490;28;45534;-76
2022/03/21 03:09:47;;;;;;;;;63.00;49.75;;;;;8.49;61.10;101841.94;5033128;28;45383;-75
2022/03/21 03:12:13;;;;;;;;;64.25;51.00;;;;;8.49;61.18;101848.09;5031936;28;45524;-75
2022/03/21 03:14:38;;;;;;;;;61.00;47.75;;;;;8.48;61.23;101850.69;5033593;28;45544;-76
2022/03/21 03:17:04;;;;;;;;;71.25;53.75;;;;;8.52;61.08;101855.13;5033835;28;45579;-75
2022/03/21 03:19:29;;;;;;;;;64.75;51.50;;;;;8.48;60.96;101846.31;5033788;28;46112;-75
2022/03/21 03:21:56;;;;;;;;;55.00;41.00;;;;;8.52;61.12;101852.50;5030257;28;45588;-75
2022/03/21 03:24:24;;;;;;;;;64.00;50.25;;;;;8.52;61.07;101847.22;5034129;28;45502;-75
2022/03/21 03:26:50;;;;;;;;;61.25;46.25;;;;;8.56;60.95;101864.81;5032105;28;45555;-75
2022/03/21 03:29:15;;;;;;;;;64.25;49.50;;;;;8.55;60.44;101857.81;5034309;28;45418;-75
2022/03/21 03:31:41;;;;;;;;;63.25;50.00;;;;;8.54;61.66;101861.28;5032170;28;45954;-76
2022/03/21 03:34:06;;;;;;;;;69.00;55.50;;;;;8.50;61.82;101843.69;5032575;28;45424;-75
2022/03/21 03:36:32;;;;;;;;;63.25;52.00;;;;;8.54;61.95;101862.16;5033153;28;45571;-75
2022/03/21 03:38:58;;;;;;;;;66.00;48.25;;;;;8.56;61.09;101862.19;5033071;28;45448;-76
2022/03/21 03:41:24;;;;;;;;;62.50;49.75;;;;;8.52;61.02;101858.66;5031645;28;45978;-75
2022/03/21 03:43:49;;;;;;;;;62.25;49.00;;;;;8.51;61.20;101863.91;5032231;28;45362;-74
2022/03/21 03:46:19;;;;;;;;;65.25;52.75;;;;;8.49;61.80;101863.03;5036266;28;45571;-76
2022/03/21 03:48:46;;;;;;;;;62.00;45.50;;;;;8.53;61.41;101875.34;5033778;28;46230;-76
2022/03/21 03:51:12;;;;;;;;;64.00;48.75;;;;;8.51;61.32;101861.28;5032817;28;45508;-75
2022/03/21 03:53:39;;;;;;;;;62.75;50.25;;;;;8.52;61.51;101863.03;5032263;28;45608;-76
2022/03/21 03:56:06;;;;;;;;;65.50;50.75;;;;;8.52;61.86;101870.94;5032371;28;45512;-74
2022/03/21 03:58:32;;;;;;;;;56.50;47.00;;;;;8.54;61.26;101872.72;5035406;28;45378;-75
2022/03/21 04:00:58;;;;;;;;;63.00;52.25;;;;;8.52;62.01;101873.59;5037910;28;45425;-74
2022/03/21 04:06:07;;;;;;;;;62.75;45.75;;;;;8.54;61.98;101877.97;5036245;28;45417;-74
2022/03/21 04:08:32;;;;;;;;;62.00;53.00;;;;;8.52;61.81;101876.22;5034818;28;46088;-76
2022/03/21 04:10:58;;;;;;;;;65.75;52.00;;;;;8.52;61.97;101873.59;5036591;28;45304;-76
2022/03/21 04:13:23;;;;;;;;;63.50;49.50;;;;;8.56;61.30;101879.75;5035096;28;45425;-75
2022/03/21 04:15:48;;;;;;;;;66.00;50.25;;;;;8.57;61.92;101873.63;5035350;28;45450;-74
2022/03/21 04:18:13;;;;;;;;;72.75;54.00;;;;;8.56;62.19;101878.00;5051994;28;46029;-75
2022/03/21 04:20:40;;;;;;;;;63.00;49.00;;;;;8.54;62.76;101877.09;5051173;28;45712;-76
2022/03/21 04:23:07;;;;;;;;;62.50;51.50;;;;;8.58;62.13;101888.56;5030956;28;45378;-75
2022/03/21 04:25:33;;;;;;;;;66.25;52.50;;;;;8.54;62.35;101885.00;5025366;28;45544;-76
2022/03/21 04:27:59;;;;;;;;;61.75;48.00;;;;;8.57;62.00;101886.81;5036512;28;45473;-75
2022/03/21 04:30:24;;;;;;;;;65.75;49.75;;;;;8.59;62.77;101887.69;5036397;28;45460;-75
2022/03/21 04:32:50;;;;;;;;;61.25;50.75;;;;;8.59;62.85;101892.97;5036280;28;45392;-75
2022/03/21 04:35:15;;;;;;;;;64.50;49.00;;;;;8.59;62.96;101896.47;5035812;28;45407;-74
2022/03/21 04:37:41;;;;;;;;;74.25;53.00;;;;;8.60;62.48;101903.50;5035665;28;45493;-75
2022/03/21 04:40:08;;;;;;;;;69.00;53.25;;;;;8.60;61.93;101898.25;5034869;28;45389;-75
2022/03/21 04:42:34;;;;;;;;;63.75;48.75;;;;;8.60;62.25;101892.09;5035676;28;45481;-75
2022/03/21 04:45:00;;;;;;;;;64.50;48.50;;;;;8.62;62.55;101896.50;5035374;28;45460;-75
2022/03/21 04:47:25;;;;;;;;;59.50;48.75;;;;;8.61;62.52;101904.38;5056114;28;45487;-75
2022/03/21 04:49:51;;;;;;;;;62.00;48.75;;;;;8.62;62.90;101903.53;5039258;28;45421;-75
2022/03/21 04:52:16;;;;;;;;;66.00;52.00;;;;;8.62;63.16;101907.03;5036052;28;45374;-75
2022/03/21 04:54:42;;;;;;;;;62.00;50.00;;;;;8.65;62.15;101914.97;5033912;28;45617;-74
2022/03/21 04:57:08;;;;;;;;;62.75;48.75;;;;;8.66;63.28;101924.66;5035955;28;45394;-76
2022/03/21 04:59:34;;;;;;;;;64.50;51.00;;;;;8.66;62.73;101918.50;5035475;28;45325;-75
2022/03/21 05:02:00;;;;;;;;;67.50;49.25;;;;;8.65;62.77;101917.59;5035506;28;45558;-75
2022/03/21 05:04:26;;;;;;;;;68.25;48.75;;;;;8.66;63.51;101922.03;5050991;28;45612;-75
2022/03/21 05:06:51;;;;;;;;;63.00;54.00;;;;;8.65;63.75;101920.25;5035398;28;45912;-75
2022/03/21 05:09:17;;;;;;;;;69.00;52.00;;;;;8.67;63.96;101930.81;5034256;28;45563;-76
2022/03/21 05:11:42;;;;;;;;;64.50;54.50;;;;;8.66;63.41;101921.16;5035403;28;45367;-75
2022/03/21 05:14:07;;;;;;;;;66.00;51.75;;;;;8.60;63.81;101907.91;5034541;28;45886;-75
2022/03/21 05:16:33;;;;;;;;;63.50;48.25;;;;;8.64;63.54;101925.50;5035002;28;46269;-75
2022/03/21 05:18:58;;;;;;;;;63.50;52.25;;;;;8.65;63.87;101916.75;5035304;28;45353;-75
2022/03/21 05:21:23;;;;;;;;;71.50;53.00;;;;;8.67;63.59;101915.88;5035655;28;45543;-75
2022/03/21 05:32:01;;;;;;;;;64.00;49.75;;;;;8.67;64.00;101920.25;5036647;28;45379;-73
2022/03/21 05:37:10;;;;;;;;;67.75;51.25;;;;;8.68;63.77;101927.31;5034639;28;45612;-75
2022/03/21 05:40:31;;;;;;;;;64.50;51.75;;;;;8.67;64.06;101941.34;5034145;28;45361;-76
2022/03/21 05:42:20;;;;;;;;;68.25;53.25;;;;;8.65;63.63;101941.34;5035190;28;45527;-75
2022/03/21 05:44:46;;;;;;;;;65.75;52.50;;;;;8.65;64.38;101930.78;5033985;28;45338;-75
2022/03/21 05:47:11;;;;;;;;;62.50;48.75;;;;;8.63;64.32;101929.03;5052909;28;46262;-76
2022/03/21 05:49:36;;;;;;;;;66.25;51.25;;;;;8.63;63.89;101929.03;5034515;28;45436;-75
2022/03/21 05:52:02;;;;;;;;;63.50;47.75;;;;;8.66;64.32;101935.19;5035158;28;45302;-76
2022/03/21 05:54:27;;;;;;;;;64.50;50.75;;;;;8.65;64.18;101940.47;5033203;28;45647;-75
2022/03/21 05:56:53;;;;;;;;;62.75;49.25;;;;;8.67;64.71;101944.88;5033914;28;45339;-75
2022/03/21 06:02:03;;;;;;;;;68.00;51.25;;;;;8.69;64.42;101945.78;5035444;28;45370;-75
2022/03/21 06:04:29;;;;;;;;;62.00;51.50;;;;;8.73;64.69;101946.72;5036383;28;45560;-77
2022/03/21 06:06:55;;;;;;;;;60.00;47.00;;;;;8.74;64.58;101950.22;5033838;28;46280;-75
2022/03/21 06:09:20;;;;;;;;;62.25;52.50;;;;;8.76;64.25;101956.38;5034336;28;45610;-76
2022/03/21 06:11:48;;;;;;;;;58.00;47.25;;;;;8.77;63.78;101959.03;5032635;28;45505;-74
2022/03/21 06:14:14;;;;;;;;;67.75;53.50;;;;;8.79;64.26;101961.66;5034140;28;45482;-76
2022/03/21 06:16:40;;;;;;;;;61.00;51.25;;;;;8.84;64.57;101966.13;5033696;28;45489;-74
2022/03/21 06:19:05;;;;;;;;;60.50;48.75;;;;;8.89;64.30;101967.03;5034794;28;45403;-76
2022/03/21 06:21:30;;;;;;;;;66.50;53.25;;;;;8.94;64.19;101968.84;5032365;28;45528;-76
2022/03/21 06:23:56;;;;;;;;;61.75;49.75;;;;;8.98;63.95;101974.16;5034039;28;45513;-76
2022/03/21 06:26:22;;;;;;;;;64.75;48.50;;;;;8.99;63.42;101972.44;5034069;28;46692;-75
2022/03/21 06:28:48;;;;;;;;;68.00;51.75;;;;;9.01;64.00;101982.09;5032745;28;45399;-76
2022/03/21 06:31:13;;;;;;;;;68.50;52.50;;;;;9.04;64.25;101979.47;5034529;28;45514;-78
2022/03/21 06:33:40;;;;;;;;;65.00;45.50;;;;;9.14;63.42;101988.38;5038633;28;45496;-79
2022/03/21 06:36:07;;;;;;;;;62.75;51.75;;;;;9.19;63.71;101988.41;5038580;28;45472;-79
2022/03/21 06:38:33;;;;;;;;;61.50;49.75;;;;;9.28;63.36;101993.75;5034376;28;45582;-78
2022/03/21 06:40:59;;;;;;;;;63.50;49.75;;;;;9.32;63.07;101989.38;5034212;28;45590;-78
2022/03/21 06:43:27;;;;;;;;;63.75;49.50;;;;;9.31;63.16;101987.63;5034180;28;45348;-79
2022/03/21 06:45:54;;;;;;;;;16.25;5.50;;;;;9.39;63.21;102002.63;5044836;28;45530;-79
2022/03/21 06:48:20;;;;;;;;;63.25;50.00;;;;;9.45;62.97;102008.84;5054753;28;45470;-80
2022/03/21 06:50:46;;;;;;;;;61.50;47.50;;;;;9.46;62.75;102011.50;5047517;28;45454;-80
2022/03/21 06:53:13;;;;;;;;;60.25;49.00;;;;;9.46;63.50;102002.66;5034623;28;45653;-81
2022/03/21 06:55:39;;;;;;;;;66.00;49.50;;;;;9.50;63.06;102021.19;5037024;28;45582;-78
2022/03/21 06:58:06;;;;;;;;;60.00;49.25;;;;;9.48;62.71;102025.56;5034361;28;45446;-78
2022/03/21 07:00:32;;;;;;;;;60.00;45.00;;;;;9.51;62.35;102017.69;5032183;28;45326;-78
2022/03/21 07:02:57;;;;;;;;;60.25;49.50;;;;;9.54;63.20;102022.97;5033414;28;45360;-77
2022/03/21 07:05:22;;;;;;;;;57.25;46.75;;;;;9.60;62.46;102024.78;5036686;28;45350;-78
2022/03/21 07:07:50;;;;;;;;;59.25;45.50;;;;;9.59;62.73;102023.88;5035135;28;45359;-79
2022/03/21 07:10:15;;;;;;;;;49.00;42.25;;;;;9.63;63.07;102021.28;5033756;28;45417;-79
2022/03/21 07:12:41;;;;;;;;;58.25;46.50;;;;;9.66;63.04;102016.91;5035439;28;45378;-79
2022/03/21 07:15:07;;;;;;;;;58.25;46.50;;;;;9.75;62.53;102021.38;5034039;28;45547;-79
2022/03/21 07:17:34;;;;;;;;;63.00;48.00;;;;;9.68;62.52;102006.34;5033477;28;45448;-80
2022/03/21 07:19:59;;;;;;;;;59.25;46.00;;;;;9.83;62.30;102029.34;5034224;28;45426;-80
2022/03/21 07:22:24;;;;;;;;;58.75;44.00;;;;;9.98;62.23;102034.72;5032428;28;45236;-80
2022/03/21 07:24:50;;;;;;;;;54.00;44.00;;;;;10.14;61.37;102033.91;5054397;28;46095;-78
2022/03/21 07:27:16;;;;;;;;;57.00;46.50;;;;;10.65;60.59;102026.19;5051829;28;45240;-79
2022/03/21 07:29:41;;;;;;;;;60.75;48.25;;;;;11.52;58.71;102011.28;5031595;28;45371;-78
2022/03/21 07:32:07;;;;;;;;;56.00;43.50;;;;;12.42;56.30;102019.00;5032636;28;45330;-77
2022/03/21 07:34:33;;;;;;;;;59.00;46.00;;;;;13.41;53.35;102015.72;5034222;28;45462;-76
2022/03/21 07:36:58;;;;;;;;;55.25;44.00;;;;;14.24;51.67;102016.59;5037192;28;45295;-76
2022/03/21 07:39:24;;;;;;;;;57.75;44.75;;;;;15.18;49.80;102016.13;5036553;28;45428;-79
2022/03/21 07:41:59;;;;;;;;;55.00;45.50;;;;;16.12;47.80;102014.47;5038437;28;45516;-79
2022/03/21 07:47:20;;;;;;;;;54.75;45.25;;;;;16.87;43.87;102011.09;5055570;28;45490;-79
2022/03/21 07:49:46;;;;;;;;;51.50;44.25;;;;;17.02;43.74;102007.16;5057498;28;45555;-79
2022/03/21 07:52:17;;;;;;;;;52.50;41.50;;;;;16.95;43.64;102013.56;5041580;28;45610;-80
2022/03/21 07:54:42;;;;;;;;;46.00;39.00;;;;;17.22;42.99;102020.91;5031465;28;46203;-79
2022/03/21 07:57:08;;;;;;;;;47.75;41.00;;;;;17.74;41.97;102017.78;5038298;28;45687;-80
2022/03/21 07:59:33;;;;;;;;;44.00;39.25;;;;;18.38;40.48;102014.22;5034831;28;45406;-80
2022/03/21 08:01:58;;;;;;;;;50.50;38.25;;;;;19.09;39.49;102014.72;5036285;28;45506;-79
2022/03/21 08:04:24;;;;;;;;;51.75;39.00;;;;;19.58;38.09;102007.66;5036470;28;45823;-80
2022/03/21 08:06:50;;;;;;;;;43.00;38.00;;;;;19.95;37.48;102006.38;5039338;28;45589;-80
2022/03/21 08:09:15;;;;;;;;;56.50;42.25;;;;;20.03;36.75;102012.34;5037634;28;45376;-79
2022/03/21 08:11:40;;;;;;;;;50.25;39.50;;;;;20.45;35.62;102010.75;5033671;28;45434;-77
2022/03/21 08:14:07;;;;;;;;;47.50;37.50;;;;;20.89;35.49;102002.78;5033772;28;45493;-79
2022/03/21 08:16:32;;;;;;;;;42.00;38.25;;;;;21.26;34.56;102003.91;5034898;28;45416;-78
2022/03/21 08:18:57;;;;;;;;;48.75;39.75;;;;;21.78;33.90;102014.25;5034370;28;45448;-78
2022/03/21 08:21:23;;;;;;;;;42.25;37.00;;;;;22.30;33.14;102012.81;5033175;28;45572;-78
2022/03/21 08:23:49;;;;;;;;;45.75;37.50;;;;;22.70;32.30;102001.03;5034340;28;45821;-79
2022/03/21 08:26:16;;;;;;;;;43.50;39.00;;;;;23.04;31.95;102006.59;5035133;28;45412;-79
2022/03/21 08:28:42;;;;;;;;;44.00;38.00;;;;;23.56;31.05;102008.47;5034006;28;45406;-78
2022/03/21 08:31:07;;;;;;;;;43.75;38.25;;;;;23.96;30.14;102006.38;5033718;28;45569;-78
2022/03/21 08:33:33;;;;;;;;;42.75;37.00;;;;;24.22;30.07;102004.94;5034604;28;45889;-79
2022/03/21 08:35:58;;;;;;;;;42.50;36.00;;;;;24.72;29.35;102010.31;5034728;28;45513;-78
2022/03/21 08:38:24;;;;;;;;;40.50;35.00;;;;;24.96;28.77;102014.31;5036637;28;45272;-79
2022/03/21 08:40:49;;;;;;;;;32.75;32.50;;;;;24.55;28.52;102006.72;5034338;28;45555;-78
2022/03/21 08:43:14;;;;;;;;;39.75;34.75;;;;;24.35;28.32;102013.22;5033471;28;45580;-79
2022/03/21 08:45:41;;;;;;;;;34.00;31.75;;;;;24.34;29.43;102010.63;5034752;28;45943;-80
2022/03/21 08:48:06;;;;;;;;;36.50;33.00;;;;;24.57;28.50;102012.91;5034634;28;45587;-79
2022/03/21 08:50:34;;;;;;;;;39.50;34.00;;;;;24.79;28.25;102011.72;5032429;28;45653;-79
2022/03/21 08:52:59;;;;;;;;;38.75;35.00;;;;;24.68;28.58;102011.47;5033837;28;45387;-78
2022/03/21 08:55:25;;;;;;;;;36.75;34.50;;;;;25.00;28.03;102015.00;5034491;28;45384;-79
2022/03/21 08:57:51;;;;;;;;;37.50;31.75;;;;;25.19;27.58;102014.81;5034850;28;45477;-78
2022/03/21 09:00:17;;;;;;;;;40.75;35.25;;;;;25.40;27.74;102006.38;5033137;28;45387;-78
2022/03/21 09:02:42;;;;;;;;;33.00;30.50;;;;;25.81;27.17;102002.97;5033725;28;46113;-78
2022/03/21 09:05:12;;;;;;;;;35.75;29.25;;;;;25.84;26.70;102010.91;5034077;28;45422;-78
2022/03/21 09:07:38;;;;;;;;;33.25;30.50;;;;;26.09;26.89;102012.13;5036874;28;45391;-79
2022/03/21 09:10:04;;;;;;;;;36.25;32.25;;;;;25.99;26.61;102000.97;5035296;28;45374;-80
2022/03/21 09:12:31;;;;;;;;;40.50;34.75;;;;;26.04;27.77;101997.03;5035188;28;46209;-81
2022/03/21 09:14:57;;;;;;;;;35.00;33.25;;;;;26.27;26.39;101997.41;5034443;28;45403;-74
2022/03/21 09:17:23;;;;;;;;;36.50;32.00;;;;;26.34;25.78;101998.75;5034956;28;45336;-79
2022/03/21 09:19:48;;;;;;;;;39.75;36.75;;;;;26.39;25.95;101998.44;5034505;28;45437;-78
2022/03/21 09:22:13;;;;;;;;;47.25;36.25;;;;;26.20;26.07;101998.75;5034239;28;45328;-79
2022/03/21 09:24:39;;;;;;;;;35.00;33.75;;;;;26.06;26.33;102005.06;5033814;28;45393;-79
2022/03/21 09:27:04;;;;;;;;;37.75;33.00;;;;;25.96;26.84;102001.13;5035988;28;45898;-79
2022/03/21 09:29:31;;;;;;;;;34.50;31.00;;;;;26.14;26.81;101994.59;5034677;28;45398;-78
2022/03/21 09:31:56;;;;;;;;;35.75;33.00;;;;;26.73;26.23;101998.97;5034099;28;46075;-79
2022/03/21 09:34:22;;;;;;;;;36.75;32.50;;;;;27.18;25.97;101987.81;5032265;28;45572;-79
2022/03/21 09:36:47;;;;;;;;;30.75;29.25;;;;;27.31;25.36;101988.72;5036854;28;45457;-80
2022/03/21 09:39:14;;;;;;;;;34.50;33.00;;;;;27.32;25.04;101995.94;5037038;28;45751;-80
2022/03/21 09:41:39;;;;;;;;;34.00;29.25;;;;;27.04;25.33;101992.38;5034939;28;46443;-80
2022/03/21 09:44:10;;;;;;;;;35.25;29.75;;;;;26.93;25.04;101997.63;5033066;28;45371;-80
2022/03/21 09:46:43;;;;;;;;;32.50;29.00;;;;;26.64;25.57;101986.84;5042185;28;45474;-80
2022/03/21 09:49:10;;;;;;;;;35.00;33.00;;;;;26.93;25.58;101984.94;5033192;28;45460;-81
2022/03/21 09:51:36;;;;;;;;;29.50;26.50;;;;;27.12;25.30;101992.69;5033191;28;46017;-80
2022/03/21 09:54:02;;;;;;;;;24.25;20.50;;;;;26.91;24.99;101989.59;5033693;28;45427;-78
2022/03/21 09:56:29;;;;;;;;;28.00;24.50;;;;;26.73;25.13;101993.53;5034197;28;45565;-79
2022/03/21 09:59:01;;;;;;;;;26.50;22.75;;;;;27.00;25.86;101979.13;5033721;28;45407;-79
2022/03/21 10:01:31;;;;;;;;;25.75;24.25;;;;;26.89;25.10;101983.41;5021684;28;45401;-79
2022/03/21 10:04:00;;;;;;;;;23.25;23.00;;;;;27.02;24.83;101974.44;5033550;28;45345;-80
2022/03/21 10:06:40;;;;;;;;;23.25;22.00;;;;;27.26;25.07;101980.03;5046565;28;45411;-79
2022/03/21 10:09:10;;;;;;;;;26.25;22.25;;;;;27.48;25.14;101974.00;5035953;28;45564;-80
2022/03/21 10:11:37;;;;;;;;;32.50;24.25;;;;;27.69;24.33;101977.06;5034204;28;45578;-78
2022/03/21 10:14:32;;;;;;;;;25.50;23.00;;;;;27.33;24.89;101970.53;5033724;28;45492;-79
2022/03/21 10:17:03;;;;;;;;;18.25;17.25;;;;;27.57;24.32;101978.78;5018045;28;45701;-79
2022/03/21 10:19:41;;;;;;;;;15.00;15.00;;;;;27.59;24.59;101970.56;5032921;28;45525;-80
2022/03/21 10:22:10;;;;;;;;;16.00;16.00;;;;;27.45;24.13;101974.22;5034618;28;46069;-79
2022/03/21 10:24:38;;;;;;;;;18.75;17.00;;;;;27.67;24.48;101972.75;5033424;28;45390;-80
2022/03/21 10:27:04;;;;;;;;;13.25;13.00;;;;;27.34;24.56;101968.69;5031754;28;45375;-81
2022/03/21 10:29:31;;;;;;;;;15.75;14.25;;;;;27.13;24.38;101959.19;5033099;28;45623;-78
2022/03/21 10:31:58;;;;;;;;;15.50;13.75;;;;;27.42;24.87;101963.59;5034622;28;46226;-80
2022/03/21 10:34:29;;;;;;;;;16.75;15.75;;;;;27.61;25.14;101958.59;5034311;28;45445;-79
2022/03/21 10:36:58;;;;;;;;;18.75;17.25;;;;;27.95;23.86;101960.75;5036753;28;45686;-79
2022/03/21 10:39:24;;;;;;;;;15.00;12.25;;;;;27.81;23.98;101959.88;5037001;28;45544;-79
2022/03/21 10:41:55;;;;;;;;;13.25;12.75;;;;;27.58;23.83;101958.81;5035299;28;45412;-82
2022/03/21 10:44:20;;;;;;;;;11.00;11.00;;;;;27.69;24.02;101959.91;5053898;28;45531;-83
2022/03/21 10:46:52;;;;;;;;;11.75;9.00;;;;;27.69;24.20;101949.91;5035593;28;45458;-80
2022/03/21 10:49:27;;;;;;;;;13.25;10.50;;;;;27.78;24.09;101953.81;5035476;28;45453;-83
2022/03/21 10:51:54;;;;;;;;;15.25;14.75;;;;;27.72;24.03;101946.97;5031780;28;45474;-82
2022/03/21 10:54:48;;;;;;;;;10.00;8.00;;;;;27.53;24.10;101960.13;5032755;28;45450;-83
2022/03/21 10:57:38;;;;;;;;;12.25;11.75;;;;;27.37;23.88;101941.34;5029983;28;45517;-83
2022/03/21 11:00:17;;;;;;;;;11.50;9.00;;;;;27.35;25.16;101952.31;5031315;28;45423;-82
2022/03/21 11:02:52;;;;;;;;;10.50;9.00;;;;;27.23;24.15;101948.56;5031752;28;46100;-82
2022/03/21 11:05:18;;;;;;;;;13.25;11.25;;;;;26.79;24.85;101944.31;5034073;28;45330;-84
2022/03/21 11:07:48;;;;;;;;;11.50;10.50;;;;;27.06;25.13;101951.56;5035358;28;45424;-82
2022/03/21 11:10:14;;;;;;;;;18.75;15.50;;;;;27.13;24.16;101948.34;5039922;28;45408;-83
2022/03/21 11:12:45;;;;;;;;;16.25;14.25;;;;;27.00;24.30;101925.72;5033611;28;45492;-82
2022/03/21 11:15:11;;;;;;;;;13.00;13.00;;;;;27.07;25.02;101937.91;5039971;28;45627;-83
2022/03/21 11:17:37;;;;;;;;;13.00;10.25;;;;;27.30;25.00;101932.72;5035794;28;45544;-81
2022/03/21 11:20:06;;;;;;;;;8.00;8.00;;;;;27.39;24.85;101937.56;5034887;28;45367;-81
2022/03/21 11:22:34;;;;;;;;;12.50;11.75;;;;;27.24;25.02;101934.03;5033349;28;46624;-83
2022/03/21 11:25:04;;;;;;;;;12.25;11.50;;;;;27.39;25.37;101929.41;5033051;28;45500;-87
2022/03/21 11:27:50;;;;;;;;;13.50;12.25;;;;;27.40;24.82;101928.41;5032936;28;45724;-82
2022/03/21 11:30:26;;;;;;;;;21.00;18.25;;;;;27.66;24.35;101917.53;5034084;28;45518;-81
2022/03/21 11:33:11;;;;;;;;;14.00;13.00;;;;;27.55;24.92;101920.16;5034371;28;45403;-82
2022/03/21 11:35:41;;;;;;;;;15.50;14.25;;;;;27.51;25.06;101915.94;5035340;28;45429;-82